sensor_id;sensor_type;location;lat;lon;timestamp;pressure;altitude;pressure_sealevel;temperature;humidity
51261;BME280;61705;46.228;24.812;2023-07-13T00:00:11;97454.59;;;20.16;92.37
51261;BME280;61705;46.228;24.812;2023-07-13T00:02:38;97443.13;;;20.13;92.76
51261;BME280;61705;46.228;24.812;2023-07-13T00:05:06;97447.59;;;20.24;92.15
51261;BME280;61705;46.228;24.812;2023-07-13T00:07:33;97445.25;;;20.10;92.44
51261;BME280;61705;46.228;24.812;2023-07-13T00:10:01;97449.06;;;20.07;93.14
51261;BME280;61705;46.228;24.812;2023-07-13T00:12:31;97438.81;;;20.22;92.30
51261;BME280;61705;46.228;24.812;2023-07-13T00:15:00;97445.72;;;20.15;92.82
51261;BME280;61705;46.228;24.812;2023-07-13T00:17:27;97443.13;;;20.13;93.16
51261;BME280;61705;46.228;24.812;2023-07-13T00:19:56;97438.81;;;20.22;92.90
51261;BME280;61705;46.228;24.812;2023-07-13T00:22:23;97435.19;;;20.02;93.32
51261;BME280;61705;46.228;24.812;2023-07-13T00:24:53;97440.34;;;20.15;93.23
51261;BME280;61705;46.228;24.812;2023-07-13T00:27:22;97449.13;;;20.17;93.03
51261;BME280;61705;46.228;24.812;2023-07-13T00:29:49;97440.03;;;20.08;92.58
51261;BME280;61705;46.228;24.812;2023-07-13T00:32:16;97439.88;;;20.00;93.65
51261;BME280;61705;46.228;24.812;2023-07-13T00:34:42;97439.94;;;19.89;94.09
51261;BME280;61705;46.228;24.812;2023-07-13T00:37:10;97440.56;;;20.02;93.59
51261;BME280;61705;46.228;24.812;2023-07-13T00:39:38;97441.06;;;20.17;93.15
51261;BME280;61705;46.228;24.812;2023-07-13T00:42:06;97445.97;;;20.12;93.36
51261;BME280;61705;46.228;24.812;2023-07-13T00:44:32;97451.66;;;20.19;92.50
51261;BME280;61705;46.228;24.812;2023-07-13T00:46:59;97444.09;;;20.03;93.27
51261;BME280;61705;46.228;24.812;2023-07-13T00:49:29;97441.06;;;19.86;93.73
51261;BME280;61705;46.228;24.812;2023-07-13T00:52:04;97447.22;;;19.77;94.29
51261;BME280;61705;46.228;24.812;2023-07-13T00:54:37;97457.09;;;19.77;94.11
51261;BME280;61705;46.228;24.812;2023-07-13T00:57:08;97464.94;;;19.69;94.54
51261;BME280;61705;46.228;24.812;2023-07-13T01:02:56;97463.75;;;19.61;94.25
51261;BME280;61705;46.228;24.812;2023-07-13T01:05:27;97459.19;;;19.52;94.68
51261;BME280;61705;46.228;24.812;2023-07-13T01:07:54;97443.22;;;19.51;95.19
51261;BME280;61705;46.228;24.812;2023-07-13T01:10:22;97455.50;;;19.53;94.89
51261;BME280;61705;46.228;24.812;2023-07-13T01:12:49;97453.09;;;19.50;94.82
51261;BME280;61705;46.228;24.812;2023-07-13T01:15:44;97464.47;;;19.42;94.94
51261;BME280;61705;46.228;24.812;2023-07-13T01:18:15;97457.53;;;19.19;95.74
51261;BME280;61705;46.228;24.812;2023-07-13T01:20:54;97459.28;;;19.30;95.84
51261;BME280;61705;46.228;24.812;2023-07-13T01:23:22;97459.63;;;19.36;95.48
51261;BME280;61705;46.228;24.812;2023-07-13T01:25:48;97455.69;;;19.40;94.91
51261;BME280;61705;46.228;24.812;2023-07-13T01:28:15;97442.38;;;19.29;94.57
51261;BME280;61705;46.228;24.812;2023-07-13T01:30:44;97449.41;;;19.30;94.30
51261;BME280;61705;46.228;24.812;2023-07-13T01:33:17;97438.25;;;19.25;94.56
51261;BME280;61705;46.228;24.812;2023-07-13T01:35:45;97443.72;;;19.24;94.30
51261;BME280;61705;46.228;24.812;2023-07-13T01:38:17;97445.38;;;19.15;94.52
51261;BME280;61705;46.228;24.812;2023-07-13T01:40:44;97445.03;;;19.08;95.20
51261;BME280;61705;46.228;24.812;2023-07-13T01:43:11;97450.97;;;19.12;95.12
51261;BME280;61705;46.228;24.812;2023-07-13T01:45:38;97456.69;;;19.07;95.15
51261;BME280;61705;46.228;24.812;2023-07-13T01:48:05;97450.41;;;19.08;95.45
51261;BME280;61705;46.228;24.812;2023-07-13T01:50:35;97458.19;;;19.11;95.58
51261;BME280;61705;46.228;24.812;2023-07-13T01:53:03;97454.63;;;19.11;95.36
51261;BME280;61705;46.228;24.812;2023-07-13T01:55:30;97454.13;;;19.17;95.05
51261;BME280;61705;46.228;24.812;2023-07-13T01:57:57;97454.38;;;19.14;95.19
51261;BME280;61705;46.228;24.812;2023-07-13T02:00:24;97458.88;;;19.13;95.05
51261;BME280;61705;46.228;24.812;2023-07-13T02:02:51;97456.53;;;19.20;95.03
51261;BME280;61705;46.228;24.812;2023-07-13T02:05:18;97444.38;;;19.16;94.93
51261;BME280;61705;46.228;24.812;2023-07-13T02:07:45;97442.88;;;19.23;95.14
51261;BME280;61705;46.228;24.812;2023-07-13T02:10:12;97449.50;;;19.19;95.08
51261;BME280;61705;46.228;24.812;2023-07-13T02:12:40;97449.50;;;19.19;95.41
51261;BME280;61705;46.228;24.812;2023-07-13T02:15:08;97458.91;;;19.34;95.05
51261;BME280;61705;46.228;24.812;2023-07-13T02:17:36;97459.28;;;19.30;95.10
51261;BME280;61705;46.228;24.812;2023-07-13T02:20:03;97460.03;;;19.32;95.77
51261;BME280;61705;46.228;24.812;2023-07-13T02:22:31;97455.44;;;19.44;94.62
51261;BME280;61705;46.228;24.812;2023-07-13T02:24:57;97453.59;;;19.23;95.96
51261;BME280;61705;46.228;24.812;2023-07-13T02:27:24;97450.47;;;19.18;96.71
51261;BME280;61705;46.228;24.812;2023-07-13T02:29:51;97450.66;;;19.26;96.15
51261;BME280;61705;46.228;24.812;2023-07-13T02:32:18;97450.06;;;19.23;96.25
51261;BME280;61705;46.228;24.812;2023-07-13T02:34:44;97460.47;;;19.37;95.36
51261;BME280;61705;46.228;24.812;2023-07-13T02:37:11;97461.06;;;19.40;95.55
51261;BME280;61705;46.228;24.812;2023-07-13T02:39:38;97460.06;;;19.21;95.58
51261;BME280;61705;46.228;24.812;2023-07-13T02:42:05;97461.81;;;19.10;95.97
51261;BME280;61705;46.228;24.812;2023-07-13T02:44:32;97474.16;;;19.02;96.05
51261;BME280;61705;46.228;24.812;2023-07-13T02:46:59;97473.75;;;19.06;96.30
51261;BME280;61705;46.228;24.812;2023-07-13T02:49:25;97467.56;;;19.06;95.44
51261;BME280;61705;46.228;24.812;2023-07-13T02:51:52;97477.59;;;18.92;96.30
51261;BME280;61705;46.228;24.812;2023-07-13T02:54:19;97474.81;;;18.83;96.58
51261;BME280;61705;46.228;24.812;2023-07-13T02:56:45;97472.63;;;18.77;97.26
51261;BME280;61705;46.228;24.812;2023-07-13T02:59:12;97476.66;;;18.82;97.73
51261;BME280;61705;46.228;24.812;2023-07-13T03:01:39;97478.38;;;18.72;98.43
51261;BME280;61705;46.228;24.812;2023-07-13T03:04:06;97479.97;;;18.63;99.42
51261;BME280;61705;46.228;24.812;2023-07-13T03:06:35;97474.09;;;18.81;99.47
51261;BME280;61705;46.228;24.812;2023-07-13T03:09:02;97480.88;;;18.96;98.58
51261;BME280;61705;46.228;24.812;2023-07-13T03:11:30;97486.56;;;19.03;97.42
51261;BME280;61705;46.228;24.812;2023-07-13T03:13:57;97471.81;;;19.08;96.83
51261;BME280;61705;46.228;24.812;2023-07-13T03:16:24;97476.94;;;19.11;96.55
51261;BME280;61705;46.228;24.812;2023-07-13T03:18:51;97471.81;;;19.08;95.78
51261;BME280;61705;46.228;24.812;2023-07-13T03:21:18;97478.53;;;19.03;95.88
51261;BME280;61705;46.228;24.812;2023-07-13T03:23:45;97482.69;;;18.96;95.94
51261;BME280;61705;46.228;24.812;2023-07-13T03:26:15;97483.19;;;18.89;95.98
51261;BME280;61705;46.228;24.812;2023-07-13T03:28:42;97483.44;;;18.98;95.99
51261;BME280;61705;46.228;24.812;2023-07-13T03:31:15;97488.66;;;18.99;96.25
51261;BME280;61705;46.228;24.812;2023-07-13T03:33:42;97481.25;;;18.91;96.64
51261;BME280;61705;46.228;24.812;2023-07-13T03:36:16;97491.81;;;18.93;96.56
51261;BME280;61705;46.228;24.812;2023-07-13T03:38:53;97481.25;;;18.91;96.28
51261;BME280;61705;46.228;24.812;2023-07-13T03:41:22;97488.84;;;19.07;95.74
51261;BME280;61705;46.228;24.812;2023-07-13T03:43:49;97488.34;;;19.13;95.27
51261;BME280;61705;46.228;24.812;2023-07-13T03:46:16;97493.25;;;19.08;95.44
51261;BME280;61705;46.228;24.812;2023-07-13T03:48:45;97492.44;;;19.29;95.03
51261;BME280;61705;46.228;24.812;2023-07-13T03:51:14;97499.63;;;19.28;94.26
51261;BME280;61705;46.228;24.812;2023-07-13T03:53:43;97493.97;;;19.31;94.32
51261;BME280;61705;46.228;24.812;2023-07-13T03:56:10;97503.78;;;19.21;94.62
51261;BME280;61705;46.228;24.812;2023-07-13T03:58:42;97493.94;;;19.10;95.01
51261;BME280;61705;46.228;24.812;2023-07-13T04:01:10;97485.81;;;19.01;95.49
51261;BME280;61705;46.228;24.812;2023-07-13T04:03:38;97492.13;;;19.11;95.43
51261;BME280;61705;46.228;24.812;2023-07-13T04:06:07;97489.69;;;19.19;95.11
51261;BME280;61705;46.228;24.812;2023-07-13T04:08:36;97494.13;;;19.30;94.79
51261;BME280;61705;46.228;24.812;2023-07-13T04:11:04;97500.00;;;19.24;93.94
51261;BME280;61705;46.228;24.812;2023-07-13T04:13:31;97496.78;;;19.09;94.33
51261;BME280;61705;46.228;24.812;2023-07-13T04:15:57;97498.41;;;19.21;94.74
51261;BME280;61705;46.228;24.812;2023-07-13T04:18:24;97503.97;;;19.08;94.89
51261;BME280;61705;46.228;24.812;2023-07-13T04:20:51;97507.00;;;19.15;94.75
51261;BME280;61705;46.228;24.812;2023-07-13T04:23:18;97503.06;;;19.19;94.34
51261;BME280;61705;46.228;24.812;2023-07-13T04:25:49;97495.06;;;19.40;93.50
51261;BME280;61705;46.228;24.812;2023-07-13T04:28:16;97503.75;;;19.32;93.27
51261;BME280;61705;46.228;24.812;2023-07-13T04:30:44;97502.38;;;19.38;93.18
51261;BME280;61705;46.228;24.812;2023-07-13T04:33:11;97500.25;;;19.53;92.48
51261;BME280;61705;46.228;24.812;2023-07-13T04:35:38;97506.78;;;19.60;92.14
51261;BME280;61705;46.228;24.812;2023-07-13T04:38:05;97503.88;;;19.52;91.61
51261;BME280;61705;46.228;24.812;2023-07-13T04:40:32;97503.03;;;19.51;91.56
51261;BME280;61705;46.228;24.812;2023-07-13T04:42:59;97508.41;;;19.51;91.55
51261;BME280;61705;46.228;24.812;2023-07-13T04:45:26;97507.88;;;19.57;91.35
51261;BME280;61705;46.228;24.812;2023-07-13T04:47:52;97503.78;;;19.74;91.29
51261;BME280;61705;46.228;24.812;2023-07-13T04:50:20;97500.84;;;19.77;90.67
51261;BME280;61705;46.228;24.812;2023-07-13T04:52:50;97502.09;;;19.94;90.17
51261;BME280;61705;46.228;24.812;2023-07-13T04:55:18;97500.25;;;20.25;88.76
51261;BME280;61705;46.228;24.812;2023-07-13T04:57:47;97502.22;;;20.23;88.96
51261;BME280;61705;46.228;24.812;2023-07-13T05:00:14;97493.44;;;20.11;89.34
51261;BME280;61705;46.228;24.812;2023-07-13T05:02:44;97487.69;;;20.26;88.72
51261;BME280;61705;46.228;24.812;2023-07-13T05:05:12;97493.16;;;20.15;89.10
51261;BME280;61705;46.228;24.812;2023-07-13T05:07:39;97496.75;;;20.25;88.64
51261;BME280;61705;46.228;24.812;2023-07-13T05:10:07;97503.22;;;20.53;88.05
51261;BME280;61705;46.228;24.812;2023-07-13T05:12:34;97500.59;;;20.63;87.52
51261;BME280;61705;46.228;24.812;2023-07-13T05:15:01;97502.22;;;21.04;85.90
51261;BME280;61705;46.228;24.812;2023-07-13T05:17:28;97498.28;;;21.18;84.79
51261;BME280;61705;46.228;24.812;2023-07-13T05:19:55;97504.88;;;20.94;85.52
51261;BME280;61705;46.228;24.812;2023-07-13T05:22:21;97509.75;;;21.20;84.71
51261;BME280;61705;46.228;24.812;2023-07-13T05:24:48;97503.81;;;21.16;84.36
51261;BME280;61705;46.228;24.812;2023-07-13T05:27:15;97509.03;;;21.27;84.30
51261;BME280;61705;46.228;24.812;2023-07-13T05:29:42;97509.88;;;21.57;82.86
51261;BME280;61705;46.228;24.812;2023-07-13T05:32:08;97517.66;;;21.80;81.73
51261;BME280;61705;46.228;24.812;2023-07-13T05:34:35;97530.09;;;22.00;80.71
51261;BME280;61705;46.228;24.812;2023-07-13T05:37:02;97532.84;;;21.61;82.15
51261;BME280;61705;46.228;24.812;2023-07-13T05:39:29;97530.56;;;21.66;82.34
51261;BME280;61705;46.228;24.812;2023-07-13T05:41:56;97532.41;;;21.85;81.83
51261;BME280;61705;46.228;24.812;2023-07-13T05:44:23;97534.38;;;21.83;81.76
51261;BME280;61705;46.228;24.812;2023-07-13T05:46:49;97530.13;;;21.81;82.33
51261;BME280;61705;46.228;24.812;2023-07-13T05:49:16;97534.00;;;22.25;80.34
51261;BME280;61705;46.228;24.812;2023-07-13T05:51:43;97532.81;;;22.47;79.93
51261;BME280;61705;46.228;24.812;2023-07-13T05:54:09;97524.84;;;22.55;80.22
51261;BME280;61705;46.228;24.812;2023-07-13T05:56:36;97524.00;;;22.55;80.01
51261;BME280;61705;46.228;24.812;2023-07-13T05:59:03;97518.91;;;22.52;80.46
51261;BME280;61705;46.228;24.812;2023-07-13T06:01:30;97516.97;;;22.44;80.62
51261;BME280;61705;46.228;24.812;2023-07-13T06:03:57;97523.88;;;21.99;83.25
51261;BME280;61705;46.228;24.812;2023-07-13T06:06:24;97513.38;;;22.06;83.21
51261;BME280;61705;46.228;24.812;2023-07-13T06:08:51;97516.78;;;21.98;83.03
51261;BME280;61705;46.228;24.812;2023-07-13T06:11:21;97511.16;;;21.82;83.44
51261;BME280;61705;46.228;24.812;2023-07-13T06:13:48;97506.16;;;21.97;84.05
51261;BME280;61705;46.228;24.812;2023-07-13T06:16:15;97509.97;;;21.94;84.30
51261;BME280;61705;46.228;24.812;2023-07-13T06:18:42;97508.44;;;21.92;84.68
51261;BME280;61705;46.228;24.812;2023-07-13T06:21:18;97516.09;;;21.87;86.05
51261;BME280;61705;46.228;24.812;2023-07-13T06:23:46;97515.59;;;22.11;84.66
51261;BME280;61705;46.228;24.812;2023-07-13T06:26:18;97516.16;;;22.14;84.92
51261;BME280;61705;46.228;24.812;2023-07-13T06:28:46;97505.69;;;22.21;84.57
51261;BME280;61705;46.228;24.812;2023-07-13T06:31:14;97505.66;;;22.31;85.25
51261;BME280;61705;46.228;24.812;2023-07-13T06:33:42;97491.72;;;22.45;84.69
51261;BME280;61705;46.228;24.812;2023-07-13T06:36:09;97499.53;;;22.66;83.57
51261;BME280;61705;46.228;24.812;2023-07-13T06:38:36;97508.59;;;22.75;83.88
51261;BME280;61705;46.228;24.812;2023-07-13T06:41:04;97504.88;;;22.76;83.87
51261;BME280;61705;46.228;24.812;2023-07-13T06:43:31;97506.38;;;22.88;83.69
51261;BME280;61705;46.228;24.812;2023-07-13T06:45:58;97510.03;;;22.97;83.45
51261;BME280;61705;46.228;24.812;2023-07-13T06:48:25;97513.00;;;23.21;82.84
51261;BME280;61705;46.228;24.812;2023-07-13T06:50:52;97504.75;;;23.23;82.04
51261;BME280;61705;46.228;24.812;2023-07-13T06:53:20;97512.31;;;23.37;81.73
51261;BME280;61705;46.228;24.812;2023-07-13T06:55:46;97504.16;;;23.47;81.31
51261;BME280;61705;46.228;24.812;2023-07-13T06:58:14;97502.69;;;23.52;81.92
51261;BME280;61705;46.228;24.812;2023-07-13T07:00:41;97508.84;;;23.45;82.00
51261;BME280;61705;46.228;24.812;2023-07-13T07:03:08;97506.47;;;23.59;81.83
51261;BME280;61705;46.228;24.812;2023-07-13T07:05:34;97505.31;;;23.80;81.69
51261;BME280;61705;46.228;24.812;2023-07-13T07:10:42;97508.63;;;24.00;80.31
51261;BME280;61705;46.228;24.812;2023-07-13T07:13:09;97509.97;;;23.96;80.30
51261;BME280;61705;46.228;24.812;2023-07-13T07:15:36;97508.81;;;24.24;79.76
51261;BME280;61705;46.228;24.812;2023-07-13T07:18:03;97499.09;;;24.13;78.11
51261;BME280;61705;46.228;24.812;2023-07-13T07:20:30;97503.84;;;24.11;79.50
51261;BME280;61705;46.228;24.812;2023-07-13T07:23:00;97488.84;;;24.43;78.91
51261;BME280;61705;46.228;24.812;2023-07-13T07:25:27;97499.41;;;24.63;78.29
51261;BME280;61705;46.228;24.812;2023-07-13T07:27:56;97503.38;;;24.85;77.57
51261;BME280;61705;46.228;24.812;2023-07-13T07:30:25;97504.22;;;24.85;77.84
51261;BME280;61705;46.228;24.812;2023-07-13T07:32:55;97503.44;;;25.09;76.66
51261;BME280;61705;46.228;24.812;2023-07-13T07:35:23;97506.56;;;25.31;75.83
51261;BME280;61705;46.228;24.812;2023-07-13T07:38:04;97508.78;;;25.51;75.06
51261;BME280;61705;46.228;24.812;2023-07-13T07:40:32;97508.47;;;25.79;74.47
51261;BME280;61705;46.228;24.812;2023-07-13T07:43:06;97513.72;;;26.13;72.16
51261;BME280;61705;46.228;24.812;2023-07-13T07:45:33;97509.25;;;26.37;70.95
51261;BME280;61705;46.228;24.812;2023-07-13T07:48:00;97516.47;;;26.69;71.17
51261;BME280;61705;46.228;24.812;2023-07-13T07:50:31;97508.94;;;26.87;70.42
51261;BME280;61705;46.228;24.812;2023-07-13T07:53:02;97502.50;;;27.20;71.40
51261;BME280;61705;46.228;24.812;2023-07-13T07:55:35;97501.31;;;27.22;68.67
51261;BME280;61705;46.228;24.812;2023-07-13T07:58:05;97512.00;;;27.47;68.82
51261;BME280;61705;46.228;24.812;2023-07-13T08:00:52;97500.66;;;27.43;68.14
51261;BME280;61705;46.228;24.812;2023-07-13T08:03:22;97501.38;;;27.37;70.22
51261;BME280;61705;46.228;24.812;2023-07-13T08:05:54;97493.34;;;27.21;68.69
51261;BME280;61705;46.228;24.812;2023-07-13T08:08:24;97483.81;;;27.25;68.35
51261;BME280;61705;46.228;24.812;2023-07-13T08:10:50;97475.94;;;27.15;68.13
51261;BME280;61705;46.228;24.812;2023-07-13T08:13:21;97469.66;;;27.37;69.99
51261;BME280;61705;46.228;24.812;2023-07-13T08:15:48;97461.16;;;27.40;69.62
51261;BME280;61705;46.228;24.812;2023-07-13T08:18:16;97457.00;;;27.53;69.14
51261;BME280;61705;46.228;24.812;2023-07-13T08:20:42;97466.69;;;27.70;68.29
51261;BME280;61705;46.228;24.812;2023-07-13T08:23:09;97472.59;;;27.97;65.37
51261;BME280;61705;46.228;24.812;2023-07-13T08:25:36;97471.19;;;28.30;64.34
51261;BME280;61705;46.228;24.812;2023-07-13T08:28:03;97480.06;;;28.62;64.28
51261;BME280;61705;46.228;24.812;2023-07-13T08:30:30;97480.25;;;28.46;65.13
51261;BME280;61705;46.228;24.812;2023-07-13T08:32:56;97478.09;;;27.88;62.66
51261;BME280;61705;46.228;24.812;2023-07-13T08:35:24;97468.91;;;27.90;62.95
51261;BME280;61705;46.228;24.812;2023-07-13T08:37:52;97468.72;;;27.91;62.28
51261;BME280;61705;46.228;24.812;2023-07-13T08:40:19;97474.66;;;28.09;64.56
51261;BME280;61705;46.228;24.812;2023-07-13T08:42:52;97464.94;;;28.15;62.77
51261;BME280;61705;46.228;24.812;2023-07-13T08:45:21;97466.69;;;28.08;61.35
51261;BME280;61705;46.228;24.812;2023-07-13T08:47:52;97476.78;;;27.99;59.95
51261;BME280;61705;46.228;24.812;2023-07-13T08:50:21;97475.06;;;28.36;59.90
51261;BME280;61705;46.228;24.812;2023-07-13T08:52:50;97478.34;;;28.61;58.36
51261;BME280;61705;46.228;24.812;2023-07-13T08:55:27;97485.81;;;28.89;58.76
51261;BME280;61705;46.228;24.812;2023-07-13T08:58:03;97482.09;;;28.75;58.26
51261;BME280;61705;46.228;24.812;2023-07-13T09:03:24;97465.34;;;29.44;56.88
51261;BME280;61705;46.228;24.812;2023-07-13T09:05:54;97451.47;;;29.60;56.71
51261;BME280;61705;46.228;24.812;2023-07-13T09:10:53;97445.09;;;29.32;57.83
51261;BME280;61705;46.228;24.812;2023-07-13T09:15:58;97443.50;;;29.37;56.38
51261;BME280;61705;46.228;24.812;2023-07-13T09:18:27;97450.09;;;29.49;56.48
51261;BME280;61705;46.228;24.812;2023-07-13T09:20:56;97444.19;;;29.61;56.30
51261;BME280;61705;46.228;24.812;2023-07-13T09:23:24;97442.19;;;29.76;54.71
51261;BME280;61705;46.228;24.812;2023-07-13T09:25:53;97450.81;;;29.58;53.25
51261;BME280;61705;46.228;24.812;2023-07-13T09:28:24;97455.47;;;29.43;53.58
51261;BME280;61705;46.228;24.812;2023-07-13T09:33:21;97458.53;;;30.04;52.42
51261;BME280;61705;46.228;24.812;2023-07-13T09:35:49;97456.81;;;30.25;52.00
51261;BME280;61705;46.228;24.812;2023-07-13T09:38:17;97454.91;;;30.53;51.64
51261;BME280;61705;46.228;24.812;2023-07-13T09:43:25;97429.03;;;30.77;51.09
51261;BME280;61705;46.228;24.812;2023-07-13T09:45:51;97428.84;;;30.85;51.13
51261;BME280;61705;46.228;24.812;2023-07-13T09:48:18;97422.91;;;30.75;50.76
51261;BME280;61705;46.228;24.812;2023-07-13T09:50:44;97424.06;;;31.07;50.98
51261;BME280;61705;46.228;24.812;2023-07-13T09:53:15;97423.66;;;31.10;50.52
51261;BME280;61705;46.228;24.812;2023-07-13T09:55:42;97419.50;;;31.28;49.86
51261;BME280;61705;46.228;24.812;2023-07-13T09:58:20;97430.84;;;31.18;50.02
51261;BME280;61705;46.228;24.812;2023-07-13T10:03:23;97415.03;;;31.07;49.45
51261;BME280;61705;46.228;24.812;2023-07-13T10:05:51;97418.63;;;31.21;49.75
51261;BME280;61705;46.228;24.812;2023-07-13T10:08:25;97422.09;;;31.49;49.50
51261;BME280;61705;46.228;24.812;2023-07-13T10:10:58;97421.88;;;31.57;48.74
51261;BME280;61705;46.228;24.812;2023-07-13T10:13:33;97421.06;;;31.63;48.39
51261;BME280;61705;46.228;24.812;2023-07-13T10:16:06;97415.78;;;31.55;47.29
51261;BME280;61705;46.228;24.812;2023-07-13T10:18:36;97412.63;;;31.38;48.25
51261;BME280;61705;46.228;24.812;2023-07-13T10:21:11;97426.28;;;31.38;48.36
51261;BME280;61705;46.228;24.812;2023-07-13T10:24:02;97416.66;;;31.62;49.08
51261;BME280;61705;46.228;24.812;2023-07-13T10:26:32;97416.41;;;31.64;48.05
51261;BME280;61705;46.228;24.812;2023-07-13T10:29:02;97420.81;;;32.18;47.73
51261;BME280;61705;46.228;24.812;2023-07-13T10:31:30;97419.78;;;31.99;47.50
51261;BME280;61705;46.228;24.812;2023-07-13T10:33:58;97416.84;;;32.07;47.56
51261;BME280;61705;46.228;24.812;2023-07-13T10:38:57;97412.38;;;32.20;46.42
51261;BME280;61705;46.228;24.812;2023-07-13T10:41:25;97413.16;;;32.60;46.04
51261;BME280;61705;46.228;24.812;2023-07-13T10:44:12;97420.63;;;32.06;46.86
51261;BME280;61705;46.228;24.812;2023-07-13T10:46:43;97426.31;;;31.92;47.01
51261;BME280;61705;46.228;24.812;2023-07-13T10:49:10;97418.72;;;31.67;47.33
51261;BME280;61705;46.228;24.812;2023-07-13T10:51:38;97431.53;;;31.33;48.49
51261;BME280;61705;46.228;24.812;2023-07-13T10:54:11;97422.31;;;31.81;46.72
51261;BME280;61705;46.228;24.812;2023-07-13T10:56:46;97419.34;;;31.69;47.76
51261;BME280;61705;46.228;24.812;2023-07-13T10:59:17;97404.00;;;31.61;47.76
51261;BME280;61705;46.228;24.812;2023-07-13T11:04:12;97409.91;;;31.78;47.57
51261;BME280;61705;46.228;24.812;2023-07-13T11:06:41;97407.59;;;32.02;47.53
51261;BME280;61705;46.228;24.812;2023-07-13T11:11:56;97397.84;;;32.32;46.37
51261;BME280;61705;46.228;24.812;2023-07-13T11:14:27;97389.22;;;32.29;46.54
51261;BME280;61705;46.228;24.812;2023-07-13T11:16:54;97386.13;;;32.05;47.02
51261;BME280;61705;46.228;24.812;2023-07-13T11:24:33;97367.41;;;32.02;46.54
51261;BME280;61705;46.228;24.812;2023-07-13T11:27:25;97371.88;;;31.44;46.16
51261;BME280;61705;46.228;24.812;2023-07-13T11:33:53;97349.59;;;31.53;43.81
51261;BME280;61705;46.228;24.812;2023-07-13T11:35:51;97337.59;;;31.81;42.72
51261;BME280;61705;46.228;24.812;2023-07-13T11:38:19;97336.34;;;31.70;43.47
51261;BME280;61705;46.228;24.812;2023-07-13T11:40:47;97331.72;;;31.91;42.69
51261;BME280;61705;46.228;24.812;2023-07-13T11:43:20;97321.78;;;32.03;41.91
51261;BME280;61705;46.228;24.812;2023-07-13T11:45:50;97314.59;;;32.15;41.10
51261;BME280;61705;46.228;24.812;2023-07-13T11:48:18;97318.25;;;31.89;41.58
51261;BME280;61705;46.228;24.812;2023-07-13T11:50:49;97306.72;;;32.39;40.95
51261;BME280;61705;46.228;24.812;2023-07-13T11:53:16;97314.78;;;32.72;40.87
51261;BME280;61705;46.228;24.812;2023-07-13T11:55:43;97305.75;;;32.65;41.92
51261;BME280;61705;46.228;24.812;2023-07-13T11:58:09;97308.22;;;32.35;41.95
51261;BME280;61705;46.228;24.812;2023-07-13T12:00:37;97302.50;;;32.49;40.43
51261;BME280;61705;46.228;24.812;2023-07-13T12:03:04;97295.13;;;32.50;40.93
51261;BME280;61705;46.228;24.812;2023-07-13T12:05:31;97299.06;;;32.92;40.35
51261;BME280;61705;46.228;24.812;2023-07-13T12:07:59;97292.66;;;32.73;41.38
51261;BME280;61705;46.228;24.812;2023-07-13T12:10:29;97287.59;;;32.77;40.39
51261;BME280;61705;46.228;24.812;2023-07-13T12:12:58;97283.84;;;32.20;41.76
51261;BME280;61705;46.228;24.812;2023-07-13T12:15:28;97281.66;;;32.48;41.18
51261;BME280;61705;46.228;24.812;2023-07-13T12:17:57;97282.31;;;32.44;41.33
51261;BME280;61705;46.228;24.812;2023-07-13T12:20:25;97278.59;;;33.01;40.62
51261;BME280;61705;46.228;24.812;2023-07-13T12:22:52;97273.25;;;33.13;40.45
51261;BME280;61705;46.228;24.812;2023-07-13T12:25:19;97259.72;;;33.18;39.58
51261;BME280;61705;46.228;24.812;2023-07-13T12:27:47;97251.56;;;33.62;39.47
51261;BME280;61705;46.228;24.812;2023-07-13T12:30:28;97249.22;;;34.02;39.14
51261;BME280;61705;46.228;24.812;2023-07-13T12:33:15;97240.91;;;34.39;38.50
51261;BME280;61705;46.228;24.812;2023-07-13T12:35:44;97227.19;;;34.39;38.70
51261;BME280;61705;46.228;24.812;2023-07-13T12:38:12;97216.19;;;34.27;37.36
51261;BME280;61705;46.228;24.812;2023-07-13T12:40:39;97230.44;;;34.66;37.42
51261;BME280;61705;46.228;24.812;2023-07-13T12:43:11;97215.84;;;34.54;37.13
51261;BME280;61705;46.228;24.812;2023-07-13T12:45:38;97207.69;;;34.47;37.18
51261;BME280;61705;46.228;24.812;2023-07-13T12:48:14;97203.81;;;34.66;37.25
51261;BME280;61705;46.228;24.812;2023-07-13T12:50:45;97196.88;;;35.06;37.24
51261;BME280;61705;46.228;24.812;2023-07-13T12:53:13;97190.38;;;34.88;37.46
51261;BME280;61705;46.228;24.812;2023-07-13T12:55:44;97182.72;;;34.90;37.46
51261;BME280;61705;46.228;24.812;2023-07-13T12:58:17;97182.41;;;35.10;37.35
51261;BME280;61705;46.228;24.812;2023-07-13T13:00:48;97174.72;;;34.89;37.97
51261;BME280;61705;46.228;24.812;2023-07-13T13:03:25;97178.59;;;35.23;37.76
51261;BME280;61705;46.228;24.812;2023-07-13T13:05:56;97184.13;;;35.11;37.88
51261;BME280;61705;46.228;24.812;2023-07-13T13:08:26;97187.13;;;34.68;38.70
51261;BME280;61705;46.228;24.812;2023-07-13T13:11:03;97185.19;;;34.57;39.07
51261;BME280;61705;46.228;24.812;2023-07-13T13:13:36;97184.28;;;34.86;38.64
51261;BME280;61705;46.228;24.812;2023-07-13T13:18:36;97189.00;;;35.09;38.32
51261;BME280;61705;46.228;24.812;2023-07-13T13:21:02;97185.53;;;35.26;38.43
51261;BME280;61705;46.228;24.812;2023-07-13T13:23:29;97179.31;;;35.07;38.62
51261;BME280;61705;46.228;24.812;2023-07-13T13:25:56;97177.66;;;35.29;38.47
51261;BME280;61705;46.228;24.812;2023-07-13T13:28:22;97191.97;;;35.55;38.75
51261;BME280;61705;46.228;24.812;2023-07-13T13:30:50;97197.47;;;35.43;38.22
51261;BME280;61705;46.228;24.812;2023-07-13T13:33:18;97198.44;;;35.13;38.73
51261;BME280;61705;46.228;24.812;2023-07-13T13:35:45;97192.69;;;35.62;38.36
51261;BME280;61705;46.228;24.812;2023-07-13T13:38:13;97202.63;;;35.51;38.65